createdAt,value
2023-02-19T00:01:28.825Z,101701.28
2023-02-19T00:03:58.193Z,101699.30
2023-02-19T00:06:28.207Z,101697.73
2023-02-19T00:08:55.656Z,101697.61
2023-02-19T00:11:25.994Z,101699.45
2023-02-19T00:13:54.637Z,101696.45
2023-02-19T00:16:24.350Z,101690.23
2023-02-19T00:18:52.232Z,101690.66
2023-02-19T00:21:19.816Z,101692.59
2023-02-19T00:23:58.201Z,101692.20
2023-02-19T00:26:25.526Z,101689.01
2023-02-19T00:28:55.544Z,101690.05
2023-02-19T00:31:25.588Z,101685.29
2023-02-19T00:33:55.379Z,101685.67
2023-02-19T00:36:23.217Z,101687.01
2023-02-19T00:38:50.940Z,101689.84
2023-02-19T00:41:19.570Z,101691.20
2023-02-19T00:43:55.263Z,101686.54
2023-02-19T00:46:43.228Z,101685.48
2023-02-19T00:49:23.342Z,101687.11
2023-02-19T00:51:52.844Z,101686.07
2023-02-19T00:54:22.508Z,101687.11
2023-02-19T00:56:49.485Z,101688.15
2023-02-19T00:59:16.407Z,101683.56
2023-02-19T01:01:45.051Z,101682.79
2023-02-19T01:04:12.431Z,101679.44
2023-02-19T01:06:39.095Z,101677.60
2023-02-19T01:09:07.185Z,101679.69
2023-02-19T01:11:34.225Z,101676.79
2023-02-19T01:14:01.989Z,101677.52
2023-02-19T01:16:29.425Z,101677.64
2023-02-19T01:18:57.309Z,101674.56
2023-02-19T01:21:26.446Z,101666.20
2023-02-19T01:23:53.924Z,101668.10
2023-02-19T01:26:23.584Z,101664.55
2023-02-19T01:28:50.619Z,101665.23
2023-02-19T01:31:21.262Z,101661.95
2023-02-19T01:33:50.557Z,101661.22
2023-02-19T01:36:17.644Z,101661.91
2023-02-19T01:38:45.180Z,101660.45
2023-02-19T01:41:15.014Z,101658.64
2023-02-19T01:44:00.092Z,101652.46
2023-02-19T01:46:32.753Z,101653.31
2023-02-19T01:49:09.353Z,101649.19
2023-02-19T01:51:39.561Z,101645.01
2023-02-19T01:54:09.855Z,101639.02
2023-02-19T01:56:40.009Z,101638.44
2023-02-19T01:59:08.818Z,101638.45
2023-02-19T02:01:40.242Z,101632.18
2023-02-19T02:04:11.130Z,101626.36
2023-02-19T02:06:51.343Z,101623.41
2023-02-19T02:09:43.401Z,101621.12
2023-02-19T02:12:10.233Z,101612.82
2023-02-19T02:14:41.560Z,101609.55
2023-02-19T02:17:30.427Z,101605.23
2023-02-19T02:20:18.053Z,101600.13
2023-02-19T02:22:52.589Z,101593.37
2023-02-19T02:25:37.323Z,101593.80
2023-02-19T02:28:20.663Z,101602.02
2023-02-19T02:30:56.524Z,101589.03
2023-02-19T02:33:36.130Z,101594.81
2023-02-19T02:36:09.079Z,101591.06
2023-02-19T02:38:41.083Z,101590.02
2023-02-19T02:41:09.123Z,101593.04
2023-02-19T02:43:36.578Z,101592.48
2023-02-19T02:46:03.870Z,101589.10
2023-02-19T02:48:56.691Z,101583.19
2023-02-19T02:51:25.326Z,101586.76
2023-02-19T02:54:23.855Z,101589.77
2023-02-19T02:56:52.784Z,101585.73
2023-02-19T02:59:25.342Z,101577.04
2023-02-19T03:02:10.880Z,101579.08
2023-02-19T03:05:03.576Z,101582.06
2023-02-19T03:07:54.596Z,101580.98
2023-02-19T03:10:30.780Z,101582.67
2023-02-19T03:13:19.401Z,101583.33
2023-02-19T03:16:11.974Z,101583.88
2023-02-19T03:19:00.045Z,101582.94
2023-02-19T03:21:28.835Z,101584.90
2023-02-19T03:24:16.816Z,101584.11
2023-02-19T03:26:45.849Z,101581.71
2023-02-19T03:29:23.001Z,101578.83
2023-02-19T03:31:56.146Z,101579.98
2023-02-19T03:34:28.392Z,101581.86
2023-02-19T03:37:18.768Z,101586.80
2023-02-19T03:39:45.789Z,101588.17
2023-02-19T03:42:33.045Z,101583.94
2023-02-19T03:45:27.584Z,101581.48
2023-02-19T03:48:24.471Z,101583.01
2023-02-19T03:51:03.330Z,101586.46
2023-02-19T03:53:53.010Z,101592.30
2023-02-19T03:56:45.348Z,101591.66
2023-02-19T03:59:33.371Z,101589.75
2023-02-19T04:02:11.932Z,101587.96
2023-02-19T04:04:46.160Z,101578.44
2023-02-19T04:07:13.839Z,101582.32
2023-02-19T04:09:45.530Z,101575.23
2023-02-19T04:12:15.658Z,101574.45
2023-02-19T04:14:49.360Z,101584.16
2023-02-19T04:17:31.697Z,101575.34
2023-02-19T04:20:01.161Z,101585.11
2023-02-19T04:22:28.991Z,101587.63
2023-02-19T04:24:56.562Z,101585.31
2023-02-19T04:27:23.725Z,101589.51
2023-02-19T04:29:53.312Z,101590.20
2023-02-19T04:32:20.045Z,101587.70
2023-02-19T04:34:47.008Z,101585.59
2023-02-19T04:37:13.690Z,101598.92
2023-02-19T04:39:40.341Z,101590.98
2023-02-19T04:42:07.003Z,101585.21
2023-02-19T04:44:34.277Z,101596.27
2023-02-19T04:47:01.154Z,101583.34
2023-02-19T04:49:27.817Z,101579.96
2023-02-19T04:51:54.473Z,101583.54
2023-02-19T04:54:21.227Z,101578.16
2023-02-19T04:56:47.928Z,101572.95
2023-02-19T04:59:14.591Z,101575.61
2023-02-19T05:01:41.191Z,101569.84
2023-02-19T05:04:07.823Z,101567.41
2023-02-19T05:06:34.492Z,101559.93
2023-02-19T05:09:01.115Z,101557.58
2023-02-19T05:11:27.774Z,101560.56
2023-02-19T05:13:56.268Z,101560.48
2023-02-19T05:16:23.074Z,101552.88
2023-02-19T05:18:50.008Z,101543.05
2023-02-19T05:21:17.114Z,101541.41
2023-02-19T05:23:44.362Z,101544.21
2023-02-19T05:26:19.287Z,101537.94
2023-02-19T05:28:48.612Z,101542.27
2023-02-19T05:31:15.854Z,101545.50
2023-02-19T05:33:44.305Z,101534.04
2023-02-19T05:36:14.556Z,101545.88
2023-02-19T05:38:42.013Z,101543.35
2023-02-19T05:41:10.419Z,101534.71
2023-02-19T05:43:38.753Z,101542.15
2023-02-19T05:46:06.490Z,101534.21
2023-02-19T05:48:33.580Z,101530.27
2023-02-19T05:51:08.515Z,101530.61
2023-02-19T05:53:36.113Z,101533.15
2023-02-19T05:56:02.827Z,101528.61
2023-02-19T05:58:29.479Z,101523.98
2023-02-19T06:00:56.845Z,101521.00
2023-02-19T06:03:23.993Z,101519.70
2023-02-19T06:05:50.790Z,101519.55
2023-02-19T06:08:17.387Z,101522.27
2023-02-19T06:10:44.035Z,101523.45
2023-02-19T06:13:11.245Z,101527.41
2023-02-19T06:15:38.271Z,101525.61
2023-02-19T06:18:05.078Z,101524.95
2023-02-19T06:20:32.989Z,101528.36
2023-02-19T06:22:59.843Z,101527.31
2023-02-19T06:25:26.501Z,101521.45
2023-02-19T06:27:53.236Z,101518.77
2023-02-19T06:30:20.083Z,101515.57
2023-02-19T06:32:46.801Z,101523.22
2023-02-19T06:35:13.436Z,101529.05
2023-02-19T06:37:40.041Z,101518.89
2023-02-19T06:40:07.477Z,101518.74
2023-02-19T06:42:34.076Z,101520.92
2023-02-19T06:45:00.837Z,101522.08
2023-02-19T06:47:31.825Z,101530.31
2023-02-19T06:49:59.331Z,101536.02
2023-02-19T06:52:27.042Z,101536.17
2023-02-19T06:54:54.029Z,101538.86
2023-02-19T06:57:20.723Z,101535.24
2023-02-19T06:59:47.420Z,101534.02
2023-02-19T07:02:14.040Z,101535.80
2023-02-19T07:04:40.820Z,101547.88
2023-02-19T07:07:11.140Z,101544.61
2023-02-19T07:09:37.848Z,101543.59
2023-02-19T07:12:05.056Z,101548.90
2023-02-19T07:14:31.810Z,101546.75
2023-02-19T07:16:58.430Z,101539.58
2023-02-19T07:19:25.090Z,101536.00
2023-02-19T07:21:51.705Z,101531.56
2023-02-19T07:24:19.188Z,101531.30
2023-02-19T07:26:45.818Z,101525.61
2023-02-19T07:29:12.507Z,101527.53
2023-02-19T07:31:39.253Z,101524.27
2023-02-19T07:34:07.058Z,101525.50
2023-02-19T07:36:33.861Z,101524.72
2023-02-19T07:39:00.706Z,101523.23
2023-02-19T07:41:28.299Z,101527.34
2023-02-19T07:43:56.611Z,101523.52
2023-02-19T07:46:23.463Z,101529.32
2023-02-19T07:48:50.396Z,101521.11
2023-02-19T07:51:19.600Z,101518.18
2023-02-19T07:53:47.524Z,101517.73
2023-02-19T07:56:14.567Z,101515.55
2023-02-19T07:58:42.196Z,101513.30
2023-02-19T08:01:41.494Z,101513.65
2023-02-19T08:04:09.201Z,101507.80
2023-02-19T08:06:35.830Z,101508.52
2023-02-19T08:09:03.978Z,101514.07
2023-02-19T08:11:49.481Z,101521.81
2023-02-19T08:14:16.333Z,101527.75
2023-02-19T08:16:52.646Z,101528.04
2023-02-19T08:19:19.871Z,101527.38
2023-02-19T08:21:46.739Z,101525.06
2023-02-19T08:24:13.357Z,101522.59
2023-02-19T08:26:39.976Z,101514.21
2023-02-19T08:29:07.267Z,101510.48
2023-02-19T08:31:35.436Z,101510.55
2023-02-19T08:34:02.192Z,101515.42
2023-02-19T08:36:28.903Z,101520.06
2023-02-19T08:38:55.546Z,101519.48
2023-02-19T08:41:22.504Z,101517.36
2023-02-19T08:43:49.243Z,101530.20
2023-02-19T08:46:15.996Z,101531.70
2023-02-19T08:48:42.664Z,101534.34
2023-02-19T08:51:11.709Z,101528.52
2023-02-19T08:53:40.858Z,101525.49
2023-02-19T08:56:13.317Z,101526.54
2023-02-19T08:58:40.399Z,101525.81
2023-02-19T09:01:16.477Z,101526.80
2023-02-19T09:03:43.365Z,101520.15
2023-02-19T09:06:19.187Z,101514.44
2023-02-19T09:08:46.464Z,101517.78
2023-02-19T09:11:14.003Z,101506.80
2023-02-19T09:13:41.159Z,101511.45
2023-02-19T09:16:08.266Z,101502.76
2023-02-19T09:18:35.758Z,101507.44
2023-02-19T09:21:05.117Z,101502.89
2023-02-19T09:23:36.294Z,101501.80
2023-02-19T09:26:07.623Z,101495.13
2023-02-19T09:28:34.612Z,101501.41
2023-02-19T09:31:06.135Z,101507.84
2023-02-19T09:33:33.361Z,101506.48
2023-02-19T09:36:03.464Z,101510.56
2023-02-19T09:38:31.105Z,101514.55
2023-02-19T09:40:59.092Z,101514.66
2023-02-19T09:43:29.445Z,101512.51
2023-02-19T09:46:04.574Z,101513.94
2023-02-19T09:48:32.015Z,101507.30
2023-02-19T09:50:59.704Z,101509.42
2023-02-19T09:53:33.932Z,101508.17
2023-02-19T09:56:02.360Z,101508.85
2023-02-19T09:58:33.490Z,101511.75
2023-02-19T10:01:05.911Z,101513.27
2023-02-19T10:03:36.063Z,101514.64
2023-02-19T10:06:10.967Z,101513.38
2023-02-19T10:08:40.383Z,101510.11
2023-02-19T10:11:07.876Z,101514.97
2023-02-19T10:13:41.624Z,101517.52
2023-02-19T10:16:17.978Z,101516.77
2023-02-19T10:18:45.859Z,101519.68
2023-02-19T10:21:19.737Z,101515.77
2023-02-19T10:23:53.905Z,101521.04
2023-02-19T10:26:20.593Z,101515.89
2023-02-19T10:28:47.222Z,101508.67
2023-02-19T10:31:22.865Z,101507.20
2023-02-19T10:33:55.617Z,101511.89
2023-02-19T10:36:36.428Z,101503.62
2023-02-19T10:39:26.568Z,101504.23
2023-02-19T10:41:56.345Z,101501.00
2023-02-19T10:44:29.163Z,101498.33
2023-02-19T10:46:59.150Z,101498.58
2023-02-19T10:49:33.530Z,101500.86
2023-02-19T10:52:17.758Z,101499.33
2023-02-19T10:54:45.939Z,101502.61
2023-02-19T10:57:15.240Z,101499.75
2023-02-19T10:59:52.322Z,101495.44
2023-02-19T11:02:21.288Z,101496.65
2023-02-19T11:05:20.609Z,101494.70
2023-02-19T11:07:50.461Z,101487.81
2023-02-19T11:10:26.630Z,101480.27
2023-02-19T11:12:56.600Z,101480.52
2023-02-19T11:15:31.335Z,101474.96
2023-02-19T11:18:13.308Z,101475.39
2023-02-19T11:20:54.528Z,101469.38
2023-02-19T11:23:29.208Z,101465.02
2023-02-19T11:25:59.011Z,101455.03
2023-02-19T11:28:42.922Z,101452.02
2023-02-19T11:31:14.600Z,101451.21
2023-02-19T11:34:13.922Z,101445.31
2023-02-19T11:36:42.462Z,101431.53
2023-02-19T11:39:15.168Z,101427.55
2023-02-19T11:42:03.996Z,101421.09
2023-02-19T11:44:49.147Z,101419.83
2023-02-19T11:47:35.391Z,101417.36
2023-02-19T11:50:02.060Z,101421.83
2023-02-19T11:52:31.365Z,101426.04
2023-02-19T11:55:19.184Z,101428.70
2023-02-19T11:57:53.072Z,101425.45
2023-02-19T12:00:36.236Z,101423.98
2023-02-19T12:03:21.825Z,101425.39
2023-02-19T12:06:16.058Z,101425.45
2023-02-19T12:09:14.475Z,101417.81
2023-02-19T12:11:55.764Z,101411.13
2023-02-19T12:14:41.253Z,101408.73
2023-02-19T12:17:26.726Z,101394.83
2023-02-19T12:19:56.514Z,101384.45
2023-02-19T12:22:32.343Z,101386.00
2023-02-19T12:25:18.731Z,101386.90
2023-02-19T12:28:00.157Z,101385.26
2023-02-19T12:30:26.861Z,101380.50
2023-02-19T12:33:50.174Z,101376.79
2023-02-19T12:36:53.758Z,101377.93
2023-02-19T12:39:44.444Z,101373.11
2023-02-19T12:42:22.962Z,101367.68
2023-02-19T12:45:00.896Z,101365.62
2023-02-19T12:47:35.227Z,101360.72
2023-02-19T12:50:23.818Z,101350.19
2023-02-19T12:52:56.332Z,101350.07
2023-02-19T12:55:29.071Z,101346.69
2023-02-19T12:57:59.156Z,101343.45
2023-02-19T13:00:50.301Z,101338.48
2023-02-19T13:03:21.008Z,101332.44
2023-02-19T13:06:13.767Z,101324.96
2023-02-19T13:09:05.826Z,101320.23
2023-02-19T13:11:49.542Z,101318.67
2023-02-19T13:14:40.410Z,101323.69
2023-02-19T13:17:23.594Z,101317.34
2023-02-19T13:19:55.461Z,101315.64
2023-02-19T13:22:59.972Z,101314.56
2023-02-19T13:25:41.817Z,101305.65
2023-02-19T13:28:21.352Z,101307.38
2023-02-19T13:31:12.380Z,101311.28
2023-02-19T13:34:12.261Z,101307.96
2023-02-19T13:36:39.642Z,101301.05
2023-02-19T13:39:07.021Z,101302.54
2023-02-19T13:41:41.479Z,101304.77
2023-02-19T13:44:18.585Z,101302.74
2023-02-19T13:46:47.144Z,101306.40
2023-02-19T13:49:22.835Z,101305.98
2023-02-19T13:51:56.702Z,101297.37
2023-02-19T13:54:27.723Z,101292.94
2023-02-19T13:57:22.655Z,101293.12
2023-02-19T14:00:49.267Z,101299.70
2023-02-19T14:03:55.229Z,101294.92
2023-02-19T14:06:22.006Z,101303.27
2023-02-19T14:08:55.949Z,101312.89
2023-02-19T14:11:41.598Z,101311.84
2023-02-19T14:14:36.440Z,101305.51
2023-02-19T14:17:24.269Z,101301.80
2023-02-19T14:19:53.224Z,101298.98
2023-02-19T14:22:46.186Z,101296.51
2023-02-19T14:25:30.771Z,101298.21
2023-02-19T14:28:00.698Z,101298.91
2023-02-19T14:30:28.589Z,101302.35
2023-02-19T14:33:09.836Z,101301.89
2023-02-19T14:35:44.667Z,101303.23
2023-02-19T14:38:39.432Z,101304.23
2023-02-19T14:41:07.534Z,101299.55
2023-02-19T14:43:35.830Z,101297.71
2023-02-19T14:46:29.925Z,101294.45
2023-02-19T14:49:07.163Z,101289.05
2023-02-19T14:51:40.098Z,101291.40
2023-02-19T14:54:38.885Z,101294.33
2023-02-19T14:57:12.882Z,101297.80
2023-02-19T14:59:39.619Z,101296.56
2023-02-19T15:02:21.236Z,101301.65
2023-02-19T15:04:48.471Z,101300.59
2023-02-19T15:07:23.437Z,101301.45
2023-02-19T15:09:57.589Z,101303.56
2023-02-19T15:12:28.803Z,101307.80
2023-02-19T15:14:59.656Z,101313.17
2023-02-19T15:17:29.617Z,101314.16
2023-02-19T15:19:58.764Z,101315.95
2023-02-19T15:22:28.624Z,101314.92
2023-02-19T15:24:55.611Z,101322.30
2023-02-19T15:27:24.911Z,101320.20
2023-02-19T15:29:53.840Z,101314.67
2023-02-19T15:32:24.197Z,101308.88
2023-02-19T15:34:58.586Z,101308.20
2023-02-19T15:37:28.947Z,101310.27
2023-02-19T15:39:57.501Z,101317.33
2023-02-19T15:42:29.888Z,101319.30
2023-02-19T15:45:08.571Z,101316.55
2023-02-19T15:48:10.913Z,101323.08
2023-02-19T15:50:44.414Z,101316.79
2023-02-19T15:53:18.888Z,101316.38
2023-02-19T15:55:47.310Z,101319.67
2023-02-19T15:58:27.894Z,101321.81
2023-02-19T16:00:58.120Z,101323.11
2023-02-19T16:03:26.889Z,101323.12
2023-02-19T16:06:06.567Z,101326.73
2023-02-19T16:08:38.478Z,101322.74
2023-02-19T16:11:23.538Z,101322.19
2023-02-19T16:14:13.603Z,101325.55
2023-02-19T16:16:42.219Z,101327.48
2023-02-19T16:19:09.998Z,101324.21
2023-02-19T16:21:37.302Z,101322.30
2023-02-19T16:24:13.945Z,101327.88
2023-02-19T16:26:42.619Z,101331.57
2023-02-19T16:29:21.979Z,101336.61
2023-02-19T16:31:51.954Z,101335.07
2023-02-19T16:34:30.969Z,101336.67
2023-02-19T16:36:57.669Z,101335.66
2023-02-19T16:39:24.436Z,101343.12
2023-02-19T16:41:50.939Z,101338.99
2023-02-19T16:44:20.623Z,101335.46
2023-02-19T16:46:49.597Z,101348.64
2023-02-19T16:49:16.911Z,101356.23
2023-02-19T16:51:45.049Z,101358.77
2023-02-19T16:54:12.505Z,101361.31
2023-02-19T16:56:39.801Z,101365.95
2023-02-19T16:59:09.763Z,101370.46
2023-02-19T17:01:37.738Z,101365.96
2023-02-19T17:04:08.241Z,101374.57
2023-02-19T17:06:37.750Z,101379.01
2023-02-19T17:09:05.319Z,101382.80
2023-02-19T17:11:32.565Z,101383.29
2023-02-19T17:13:59.143Z,101392.65
2023-02-19T17:16:28.384Z,101400.92
2023-02-19T17:18:55.668Z,101409.24
2023-02-19T17:21:25.640Z,101409.14
2023-02-19T17:23:52.640Z,101415.40
2023-02-19T17:26:31.394Z,101421.80
2023-02-19T17:29:04.327Z,101420.63
2023-02-19T17:31:31.873Z,101416.33
2023-02-19T17:33:59.137Z,101421.54
2023-02-19T17:36:31.247Z,101433.16
2023-02-19T17:39:02.746Z,101434.54
2023-02-19T17:41:30.061Z,101432.92
2023-02-19T17:43:56.669Z,101431.98
2023-02-19T17:46:27.407Z,101432.37
2023-02-19T17:48:54.859Z,101435.44
2023-02-19T17:51:22.435Z,101433.22
2023-02-19T17:53:49.415Z,101436.76
2023-02-19T17:56:21.328Z,101435.30
2023-02-19T17:58:47.993Z,101440.22
2023-02-19T18:01:15.043Z,101444.39
2023-02-19T18:03:42.818Z,101442.02
2023-02-19T18:06:09.610Z,101448.62
2023-02-19T18:08:36.231Z,101445.45
2023-02-19T18:11:03.238Z,101458.04
2023-02-19T18:13:30.173Z,101458.94
2023-02-19T18:15:56.889Z,101450.98
2023-02-19T18:18:23.521Z,101446.77
2023-02-19T18:20:50.560Z,101444.70
2023-02-19T18:23:17.513Z,101447.59
2023-02-19T18:25:44.197Z,101456.32
2023-02-19T18:28:10.915Z,101472.66
2023-02-19T18:30:37.644Z,101476.86
2023-02-19T18:33:04.386Z,101478.23
2023-02-19T18:35:31.023Z,101480.02
2023-02-19T18:37:57.783Z,101479.95
2023-02-19T18:40:28.507Z,101482.69
2023-02-19T18:42:55.229Z,101490.66
2023-02-19T18:45:22.108Z,101495.47
2023-02-19T18:47:49.868Z,101500.81
2023-02-19T18:50:18.452Z,101511.33
2023-02-19T18:52:45.253Z,101516.14
2023-02-19T18:55:12.939Z,101515.40
2023-02-19T18:57:39.567Z,101519.36
2023-02-19T19:00:07.659Z,101527.65
2023-02-19T19:02:48.266Z,101535.27
2023-02-19T19:05:20.899Z,101533.59
2023-02-19T19:07:47.524Z,101536.11
2023-02-19T19:10:14.829Z,101529.20
2023-02-19T19:12:41.473Z,101530.61
2023-02-19T19:15:08.566Z,101534.61
2023-02-19T19:17:35.731Z,101541.43
2023-02-19T19:20:02.329Z,101542.21
2023-02-19T19:22:28.901Z,101541.91
2023-02-19T19:24:55.503Z,101544.44
2023-02-19T19:27:22.095Z,101554.80
2023-02-19T19:29:49.708Z,101561.89
2023-02-19T19:32:16.626Z,101568.08
2023-02-19T19:34:43.427Z,101570.68
2023-02-19T19:37:10.112Z,101566.59
2023-02-19T19:39:37.012Z,101574.17
2023-02-19T19:42:03.825Z,101583.80
2023-02-19T19:44:30.441Z,101584.17
2023-02-19T19:46:57.172Z,101584.00
2023-02-19T19:49:24.308Z,101588.56
2023-02-19T19:51:50.944Z,101588.79
2023-02-19T19:54:17.517Z,101593.58
2023-02-19T19:56:46.854Z,101599.92
2023-02-19T19:59:15.800Z,101603.59
2023-02-19T20:01:53.710Z,101605.13
2023-02-19T20:04:22.206Z,101602.57
2023-02-19T20:06:50.040Z,101598.05
2023-02-19T20:09:18.267Z,101600.02
2023-02-19T20:11:50.792Z,101600.42
2023-02-19T20:14:19.540Z,101599.40
2023-02-19T20:16:48.675Z,101599.20
2023-02-19T20:19:16.961Z,101602.14
2023-02-19T20:21:49.322Z,101606.83
2023-02-19T20:24:18.265Z,101604.05
2023-02-19T20:26:45.275Z,101603.17
2023-02-19T20:29:12.335Z,101603.05
2023-02-19T20:31:39.497Z,101602.41
2023-02-19T20:34:06.302Z,101601.02
2023-02-19T20:36:33.041Z,101594.96
2023-02-19T20:38:59.825Z,101596.76
2023-02-19T20:41:26.582Z,101594.80
2023-02-19T20:43:53.288Z,101592.81
2023-02-19T20:46:20.081Z,101596.60
2023-02-19T20:48:47.040Z,101603.66
2023-02-19T20:51:13.878Z,101607.36
2023-02-19T20:53:41.972Z,101609.04
2023-02-19T20:56:09.041Z,101607.42
2023-02-19T20:58:35.772Z,101606.38
2023-02-19T21:01:02.450Z,101609.27
2023-02-19T21:03:29.500Z,101612.05
2023-02-19T21:05:56.210Z,101611.79
2023-02-19T21:08:22.931Z,101617.65
2023-02-19T21:10:49.720Z,101628.73
2023-02-19T21:13:16.400Z,101634.19
2023-02-19T21:15:43.526Z,101638.55
2023-02-19T21:18:10.521Z,101640.35
2023-02-19T21:20:37.163Z,101641.65
2023-02-19T21:23:03.997Z,101639.82
2023-02-19T21:25:33.810Z,101642.98
2023-02-19T21:28:00.577Z,101641.69
2023-02-19T21:30:27.410Z,101632.95
2023-02-19T21:32:54.224Z,101631.73
2023-02-19T21:35:20.866Z,101638.32
2023-02-19T21:37:47.684Z,101640.45
2023-02-19T21:40:15.655Z,101642.34
2023-02-19T21:42:42.484Z,101638.05
2023-02-19T21:45:09.467Z,101640.30
2023-02-19T21:47:36.270Z,101644.30
2023-02-19T21:50:02.970Z,101648.50
2023-02-19T21:52:31.178Z,101650.50
2023-02-19T21:54:58.002Z,101648.20
2023-02-19T21:57:24.757Z,101645.71
2023-02-19T21:59:51.528Z,101651.73
2023-02-19T22:02:20.761Z,101652.48
2023-02-19T22:04:53.655Z,101658.50
2023-02-19T22:07:21.859Z,101666.48
2023-02-19T22:09:50.135Z,101676.17
2023-02-19T22:12:18.242Z,101684.45
2023-02-19T22:14:45.401Z,101682.27
2023-02-19T22:17:12.131Z,101680.87
2023-02-19T22:19:39.253Z,101682.41
2023-02-19T22:22:05.981Z,101679.33
2023-02-19T22:24:32.709Z,101678.26
2023-02-19T22:26:59.381Z,101677.39
2023-02-19T22:29:26.062Z,101676.40
2023-02-19T22:31:53.083Z,101678.98
2023-02-19T22:34:20.077Z,101682.91
2023-02-19T22:36:47.077Z,101683.15
2023-02-19T22:39:25.543Z,101681.63
2023-02-19T22:41:53.349Z,101686.75
2023-02-19T22:44:20.063Z,101687.20
2023-02-19T22:46:52.383Z,101690.50
2023-02-19T22:49:20.580Z,101688.52
2023-02-19T22:52:07.531Z,101689.92
2023-02-19T22:54:35.628Z,101691.98
2023-02-19T22:57:02.799Z,101689.64
2023-02-19T22:59:29.706Z,101691.61
2023-02-19T23:01:56.793Z,101690.48
2023-02-19T23:04:25.653Z,101687.82
2023-02-19T23:06:52.541Z,101685.83
2023-02-19T23:09:28.231Z,101688.16
2023-02-19T23:12:03.844Z,101695.21
2023-02-19T23:14:30.641Z,101697.82
2023-02-19T23:16:58.411Z,101695.17
2023-02-19T23:19:26.098Z,101698.98
2023-02-19T23:21:53.405Z,101703.31
2023-02-19T23:24:20.139Z,101704.16
2023-02-19T23:26:50.055Z,101704.98
2023-02-19T23:29:19.680Z,101703.41
2023-02-19T23:31:46.839Z,101701.08
2023-02-19T23:34:14.564Z,101699.75
2023-02-19T23:36:42.758Z,101707.44
2023-02-19T23:39:11.511Z,101714.76
2023-02-19T23:41:52.710Z,101712.94
2023-02-19T23:44:21.647Z,101704.78
2023-02-19T23:46:48.986Z,101701.86
2023-02-19T23:49:16.547Z,101701.95
2023-02-19T23:51:43.818Z,101705.42
2023-02-19T23:54:11.019Z,101703.28
2023-02-19T23:56:38.284Z,101706.02
2023-02-19T23:59:05.035Z,101707.95
